Página principal
METAR-TAF:

METAR-TAF

Aeroportos :

Ouagadougou, Burkina Faso

latitude: 12-21N, longitude: 001-31W, altura: 316 m

Observação actual do tempo

O boletim foi feito há 27 minutos, às 00:00 UTC
Vento 7 kt de su-sudoeste
Temperatura 33°C
Humidade 41%
Pressão 1009 hPa
Visibilidade 10 km ou mais
sem nuvens abaixo de 1500 metros e sem cumulonimbus

METAR: DFFD 220000Z 20007KT CAVOK 33/18 Q1009 NOSIG

Hora: 00:27 (00:27 UTC)

Previsão

O boletim foi feito há 1 hora e 27 minutos, às 23:00 UTC
Previsão válida de 22 às 00 UTC a 23 às 06 UTC
Vento 8 kt de sudoeste
Visibilidade 10 km ou mais
sem nuvens abaixo de 1500 metros e sem cumulonimbus
Temporariamente
de 22 às 15 UTC a 22 às 24 UTC
Visibilidade: 4000 m
Nuvens dispersasa uma altura de 2600 ft
Poucas nuvensa uma altura de 4000 ft, Cumulonimbus.
trovoada, chuva

TAF: DFFD 212300Z 2200/2306 22008KT CAVOK TEMPO 2215/2224 4000 TSRA SCT026 FEW040CB

Observações e previsões do tempo de mais de 4000 aeroportos (mensagens METAR e TAF).

As estações disponíveis são os pontos amarelos e vermelhos sobre o mapa.

Mova o rato sobre o mapa para ver o nome da estação.

Depois clique no ponto para visualizar as observações e previsões meteorológicas.

Para alterar o mapa : clique nos botões verdes com uma cruz preta para aumentar o zoom; no botão verde com uma pitada de zoom; ou nas setas verdes para mapas adjacentes.


METAR-TAF: